sensor_id;sensor_type;location;lat;lon;timestamp;P1;durP1;ratioP1;P2;durP2;ratioP2
58878;SDS011;44660;42.664;23.266;2024-02-23T00:01:25;19.48;;;12.05;;
58878;SDS011;44660;42.664;23.266;2024-02-23T00:03:50;22.27;;;11.57;;
58878;SDS011;44660;42.664;23.266;2024-02-23T00:06:16;22.70;;;11.93;;
58878;SDS011;44660;42.664;23.266;2024-02-23T00:08:41;19.42;;;11.07;;
58878;SDS011;44660;42.664;23.266;2024-02-23T00:11:07;17.05;;;11.30;;
58878;SDS011;44660;42.664;23.266;2024-02-23T00:13:35;16.33;;;10.00;;
58878;SDS011;44660;42.664;23.266;2024-02-23T00:16:00;18.35;;;10.07;;
58878;SDS011;44660;42.664;23.266;2024-02-23T00:18:26;14.90;;;9.30;;
58878;SDS011;44660;42.664;23.266;2024-02-23T00:20:51;16.00;;;10.25;;
58878;SDS011;44660;42.664;23.266;2024-02-23T00:23:16;22.08;;;11.85;;
58878;SDS011;44660;42.664;23.266;2024-02-23T00:25:42;24.75;;;11.80;;
58878;SDS011;44660;42.664;23.266;2024-02-23T00:28:08;22.60;;;11.38;;
58878;SDS011;44660;42.664;23.266;2024-02-23T00:30:34;21.30;;;12.48;;
58878;SDS011;44660;42.664;23.266;2024-02-23T00:32:59;27.88;;;11.57;;
58878;SDS011;44660;42.664;23.266;2024-02-23T00:35:24;23.10;;;12.23;;
58878;SDS011;44660;42.664;23.266;2024-02-23T00:37:50;42.42;;;20.75;;
58878;SDS011;44660;42.664;23.266;2024-02-23T00:40:15;36.45;;;17.05;;
58878;SDS011;44660;42.664;23.266;2024-02-23T00:42:41;23.85;;;11.95;;
58878;SDS011;44660;42.664;23.266;2024-02-23T00:45:06;20.98;;;10.77;;
58878;SDS011;44660;42.664;23.266;2024-02-23T00:47:32;20.67;;;10.38;;
58878;SDS011;44660;42.664;23.266;2024-02-23T00:49:57;22.05;;;11.15;;
58878;SDS011;44660;42.664;23.266;2024-02-23T00:52:23;24.05;;;10.50;;
58878;SDS011;44660;42.664;23.266;2024-02-23T00:54:48;22.48;;;11.55;;
58878;SDS011;44660;42.664;23.266;2024-02-23T00:57:14;21.70;;;11.57;;
58878;SDS011;44660;42.664;23.266;2024-02-23T00:59:39;22.33;;;11.38;;
58878;SDS011;44660;42.664;23.266;2024-02-23T01:02:04;18.80;;;10.27;;
58878;SDS011;44660;42.664;23.266;2024-02-23T01:04:30;21.10;;;11.23;;
58878;SDS011;44660;42.664;23.266;2024-02-23T01:06:55;21.10;;;11.95;;
58878;SDS011;44660;42.664;23.266;2024-02-23T01:09:21;24.08;;;11.88;;
58878;SDS011;44660;42.664;23.266;2024-02-23T01:11:47;21.17;;;11.27;;
58878;SDS011;44660;42.664;23.266;2024-02-23T01:14:13;20.90;;;11.10;;
58878;SDS011;44660;42.664;23.266;2024-02-23T01:16:38;17.60;;;10.73;;
58878;SDS011;44660;42.664;23.266;2024-02-23T01:19:04;19.27;;;9.98;;
58878;SDS011;44660;42.664;23.266;2024-02-23T01:21:29;16.65;;;9.27;;
58878;SDS011;44660;42.664;23.266;2024-02-23T01:23:54;16.35;;;8.98;;
58878;SDS011;44660;42.664;23.266;2024-02-23T01:26:22;14.88;;;8.55;;
58878;SDS011;44660;42.664;23.266;2024-02-23T01:28:48;14.07;;;7.82;;
58878;SDS011;44660;42.664;23.266;2024-02-23T01:31:13;15.07;;;8.23;;
58878;SDS011;44660;42.664;23.266;2024-02-23T01:33:38;16.15;;;7.80;;
58878;SDS011;44660;42.664;23.266;2024-02-23T01:36:07;12.27;;;7.05;;
58878;SDS011;44660;42.664;23.266;2024-02-23T01:38:33;13.85;;;8.32;;
58878;SDS011;44660;42.664;23.266;2024-02-23T01:40:59;16.10;;;9.05;;
58878;SDS011;44660;42.664;23.266;2024-02-23T01:43:25;16.88;;;9.88;;
58878;SDS011;44660;42.664;23.266;2024-02-23T01:45:51;15.23;;;9.05;;
58878;SDS011;44660;42.664;23.266;2024-02-23T01:48:16;13.13;;;8.25;;
58878;SDS011;44660;42.664;23.266;2024-02-23T01:50:43;15.32;;;7.95;;
58878;SDS011;44660;42.664;23.266;2024-02-23T01:53:08;19.65;;;10.38;;
58878;SDS011;44660;42.664;23.266;2024-02-23T01:55:36;16.20;;;9.18;;
58878;SDS011;44660;42.664;23.266;2024-02-23T01:58:02;15.07;;;8.02;;
58878;SDS011;44660;42.664;23.266;2024-02-23T02:00:29;19.65;;;10.68;;
58878;SDS011;44660;42.664;23.266;2024-02-23T02:02:55;14.07;;;7.65;;
58878;SDS011;44660;42.664;23.266;2024-02-23T02:05:20;14.45;;;7.75;;
58878;SDS011;44660;42.664;23.266;2024-02-23T02:07:46;12.00;;;7.30;;
58878;SDS011;44660;42.664;23.266;2024-02-23T02:10:15;14.40;;;7.55;;
58878;SDS011;44660;42.664;23.266;2024-02-23T02:12:42;13.15;;;7.18;;
58878;SDS011;44660;42.664;23.266;2024-02-23T02:15:07;21.75;;;12.38;;
58878;SDS011;44660;42.664;23.266;2024-02-23T02:17:33;14.18;;;9.35;;
58878;SDS011;44660;42.664;23.266;2024-02-23T02:19:59;14.93;;;8.23;;
58878;SDS011;44660;42.664;23.266;2024-02-23T02:22:29;16.38;;;7.88;;
58878;SDS011;44660;42.664;23.266;2024-02-23T02:24:57;14.65;;;7.40;;
58878;SDS011;44660;42.664;23.266;2024-02-23T02:27:22;13.02;;;7.65;;
58878;SDS011;44660;42.664;23.266;2024-02-23T02:29:49;14.85;;;7.80;;
58878;SDS011;44660;42.664;23.266;2024-02-23T02:32:16;11.85;;;7.47;;
58878;SDS011;44660;42.664;23.266;2024-02-23T02:34:42;12.30;;;6.97;;
58878;SDS011;44660;42.664;23.266;2024-02-23T02:37:07;14.65;;;8.00;;
58878;SDS011;44660;42.664;23.266;2024-02-23T02:39:33;11.75;;;7.15;;
58878;SDS011;44660;42.664;23.266;2024-02-23T02:41:58;10.55;;;6.90;;
58878;SDS011;44660;42.664;23.266;2024-02-23T02:44:24;11.85;;;7.60;;
58878;SDS011;44660;42.664;23.266;2024-02-23T02:46:51;13.65;;;8.48;;
58878;SDS011;44660;42.664;23.266;2024-02-23T02:49:17;12.30;;;7.70;;
58878;SDS011;44660;42.664;23.266;2024-02-23T02:51:42;15.32;;;8.00;;
58878;SDS011;44660;42.664;23.266;2024-02-23T02:54:07;14.80;;;8.05;;
58878;SDS011;44660;42.664;23.266;2024-02-23T02:56:33;12.77;;;7.70;;
58878;SDS011;44660;42.664;23.266;2024-02-23T02:58:58;13.60;;;7.68;;
58878;SDS011;44660;42.664;23.266;2024-02-23T03:01:43;14.18;;;7.90;;
58878;SDS011;44660;42.664;23.266;2024-02-23T03:04:08;14.05;;;7.95;;
58878;SDS011;44660;42.664;23.266;2024-02-23T03:06:34;14.60;;;7.65;;
58878;SDS011;44660;42.664;23.266;2024-02-23T03:08:59;14.02;;;8.13;;
58878;SDS011;44660;42.664;23.266;2024-02-23T03:11:24;12.75;;;7.50;;
58878;SDS011;44660;42.664;23.266;2024-02-23T03:13:50;12.38;;;8.07;;
58878;SDS011;44660;42.664;23.266;2024-02-23T03:16:18;13.85;;;8.13;;
58878;SDS011;44660;42.664;23.266;2024-02-23T03:18:45;14.52;;;8.38;;
58878;SDS011;44660;42.664;23.266;2024-02-23T03:21:11;17.08;;;8.50;;
58878;SDS011;44660;42.664;23.266;2024-02-23T03:23:39;19.13;;;9.75;;
58878;SDS011;44660;42.664;23.266;2024-02-23T03:26:06;15.45;;;8.38;;
58878;SDS011;44660;42.664;23.266;2024-02-23T03:28:31;16.15;;;9.13;;
58878;SDS011;44660;42.664;23.266;2024-02-23T03:30:57;14.95;;;7.97;;
58878;SDS011;44660;42.664;23.266;2024-02-23T03:33:22;13.40;;;7.75;;
58878;SDS011;44660;42.664;23.266;2024-02-23T03:35:48;11.57;;;7.53;;
58878;SDS011;44660;42.664;23.266;2024-02-23T03:38:13;14.05;;;8.25;;
58878;SDS011;44660;42.664;23.266;2024-02-23T03:40:39;15.00;;;8.40;;
58878;SDS011;44660;42.664;23.266;2024-02-23T03:43:04;20.30;;;10.38;;
58878;SDS011;44660;42.664;23.266;2024-02-23T03:45:31;14.63;;;8.35;;
58878;SDS011;44660;42.664;23.266;2024-02-23T03:47:56;23.20;;;12.27;;
58878;SDS011;44660;42.664;23.266;2024-02-23T03:50:22;52.22;;;24.92;;
58878;SDS011;44660;42.664;23.266;2024-02-23T03:52:47;18.80;;;10.48;;
58878;SDS011;44660;42.664;23.266;2024-02-23T03:55:12;18.48;;;9.93;;
58878;SDS011;44660;42.664;23.266;2024-02-23T03:57:38;160.38;;;65.70;;
58878;SDS011;44660;42.664;23.266;2024-02-23T04:00:04;37.58;;;16.88;;
58878;SDS011;44660;42.664;23.266;2024-02-23T04:02:31;29.67;;;14.07;;
58878;SDS011;44660;42.664;23.266;2024-02-23T04:04:56;24.60;;;12.80;;
58878;SDS011;44660;42.664;23.266;2024-02-23T04:07:22;16.92;;;9.63;;
58878;SDS011;44660;42.664;23.266;2024-02-23T04:09:47;17.70;;;8.77;;
58878;SDS011;44660;42.664;23.266;2024-02-23T04:14:44;14.45;;;8.32;;
58878;SDS011;44660;42.664;23.266;2024-02-23T04:17:09;16.20;;;9.38;;
58878;SDS011;44660;42.664;23.266;2024-02-23T04:19:36;22.92;;;12.05;;
58878;SDS011;44660;42.664;23.266;2024-02-23T04:22:02;19.65;;;10.65;;
58878;SDS011;44660;42.664;23.266;2024-02-23T04:24:28;37.53;;;18.75;;
58878;SDS011;44660;42.664;23.266;2024-02-23T04:26:53;19.48;;;11.23;;
58878;SDS011;44660;42.664;23.266;2024-02-23T04:29:19;24.25;;;12.77;;
58878;SDS011;44660;42.664;23.266;2024-02-23T04:31:44;28.95;;;13.93;;
58878;SDS011;44660;42.664;23.266;2024-02-23T04:34:09;29.67;;;13.80;;
58878;SDS011;44660;42.664;23.266;2024-02-23T04:36:35;29.30;;;14.25;;
58878;SDS011;44660;42.664;23.266;2024-02-23T04:39:00;28.50;;;12.65;;
58878;SDS011;44660;42.664;23.266;2024-02-23T04:41:26;22.25;;;11.13;;
58878;SDS011;44660;42.664;23.266;2024-02-23T04:43:51;27.88;;;13.63;;
58878;SDS011;44660;42.664;23.266;2024-02-23T04:46:18;15.80;;;8.90;;
58878;SDS011;44660;42.664;23.266;2024-02-23T04:48:43;18.05;;;10.23;;
58878;SDS011;44660;42.664;23.266;2024-02-23T04:51:09;20.75;;;12.45;;
58878;SDS011;44660;42.664;23.266;2024-02-23T04:53:37;27.70;;;10.85;;
58878;SDS011;44660;42.664;23.266;2024-02-23T04:56:03;22.05;;;10.88;;
58878;SDS011;44660;42.664;23.266;2024-02-23T04:58:29;26.25;;;12.35;;
58878;SDS011;44660;42.664;23.266;2024-02-23T05:00:55;69.40;;;27.00;;
58878;SDS011;44660;42.664;23.266;2024-02-23T05:03:20;57.17;;;23.75;;
58878;SDS011;44660;42.664;23.266;2024-02-23T05:05:46;37.05;;;17.02;;
58878;SDS011;44660;42.664;23.266;2024-02-23T05:08:11;24.70;;;13.60;;
58878;SDS011;44660;42.664;23.266;2024-02-23T05:10:36;30.65;;;16.67;;
58878;SDS011;44660;42.664;23.266;2024-02-23T05:13:02;29.50;;;17.05;;
58878;SDS011;44660;42.664;23.266;2024-02-23T05:15:27;50.42;;;28.08;;
58878;SDS011;44660;42.664;23.266;2024-02-23T05:17:53;54.65;;;27.55;;
58878;SDS011;44660;42.664;23.266;2024-02-23T05:20:18;41.58;;;22.88;;
58878;SDS011;44660;42.664;23.266;2024-02-23T05:22:44;50.53;;;25.77;;
58878;SDS011;44660;42.664;23.266;2024-02-23T05:25:09;54.40;;;28.50;;
58878;SDS011;44660;42.664;23.266;2024-02-23T05:27:35;41.72;;;22.45;;
58878;SDS011;44660;42.664;23.266;2024-02-23T05:30:00;41.97;;;19.60;;
58878;SDS011;44660;42.664;23.266;2024-02-23T05:32:26;33.90;;;18.10;;
58878;SDS011;44660;42.664;23.266;2024-02-23T05:34:51;27.23;;;14.00;;
58878;SDS011;44660;42.664;23.266;2024-02-23T05:37:18;37.05;;;19.40;;
58878;SDS011;44660;42.664;23.266;2024-02-23T05:39:43;21.02;;;12.10;;
58878;SDS011;44660;42.664;23.266;2024-02-23T05:42:11;36.58;;;19.55;;
58878;SDS011;44660;42.664;23.266;2024-02-23T05:44:36;23.73;;;11.88;;
58878;SDS011;44660;42.664;23.266;2024-02-23T05:47:02;24.88;;;13.55;;
58878;SDS011;44660;42.664;23.266;2024-02-23T05:49:27;22.95;;;12.18;;
58878;SDS011;44660;42.664;23.266;2024-02-23T05:51:53;20.05;;;12.40;;
58878;SDS011;44660;42.664;23.266;2024-02-23T05:54:18;22.10;;;12.50;;
58878;SDS011;44660;42.664;23.266;2024-02-23T05:56:44;32.30;;;16.73;;
58878;SDS011;44660;42.664;23.266;2024-02-23T05:59:10;49.50;;;23.88;;
58878;SDS011;44660;42.664;23.266;2024-02-23T06:01:36;30.50;;;17.20;;
58878;SDS011;44660;42.664;23.266;2024-02-23T06:04:02;28.77;;;15.07;;
58878;SDS011;44660;42.664;23.266;2024-02-23T06:06:27;27.75;;;15.52;;
58878;SDS011;44660;42.664;23.266;2024-02-23T06:08:53;32.40;;;17.85;;
58878;SDS011;44660;42.664;23.266;2024-02-23T06:11:19;32.78;;;18.40;;
58878;SDS011;44660;42.664;23.266;2024-02-23T06:13:44;34.47;;;16.98;;
58878;SDS011;44660;42.664;23.266;2024-02-23T06:16:10;26.50;;;15.38;;
58878;SDS011;44660;42.664;23.266;2024-02-23T06:18:36;27.17;;;14.55;;
58878;SDS011;44660;42.664;23.266;2024-02-23T06:21:15;25.23;;;13.68;;
58878;SDS011;44660;42.664;23.266;2024-02-23T06:23:41;24.52;;;13.38;;
58878;SDS011;44660;42.664;23.266;2024-02-23T06:26:06;26.25;;;13.93;;
58878;SDS011;44660;42.664;23.266;2024-02-23T06:28:32;33.03;;;15.82;;
58878;SDS011;44660;42.664;23.266;2024-02-23T06:30:58;25.48;;;12.85;;
58878;SDS011;44660;42.664;23.266;2024-02-23T06:33:23;21.67;;;13.43;;
58878;SDS011;44660;42.664;23.266;2024-02-23T06:35:49;20.27;;;11.32;;
58878;SDS011;44660;42.664;23.266;2024-02-23T06:38:15;21.95;;;11.00;;
58878;SDS011;44660;42.664;23.266;2024-02-23T06:40:40;20.05;;;11.13;;
58878;SDS011;44660;42.664;23.266;2024-02-23T06:43:06;21.08;;;12.27;;
58878;SDS011;44660;42.664;23.266;2024-02-23T06:45:31;23.35;;;11.02;;
58878;SDS011;44660;42.664;23.266;2024-02-23T06:47:56;17.23;;;9.82;;
58878;SDS011;44660;42.664;23.266;2024-02-23T06:50:22;19.35;;;9.98;;
58878;SDS011;44660;42.664;23.266;2024-02-23T06:52:47;19.08;;;10.70;;
58878;SDS011;44660;42.664;23.266;2024-02-23T06:55:14;18.73;;;10.35;;
58878;SDS011;44660;42.664;23.266;2024-02-23T06:57:40;18.15;;;10.25;;
58878;SDS011;44660;42.664;23.266;2024-02-23T07:00:05;22.90;;;11.43;;
58878;SDS011;44660;42.664;23.266;2024-02-23T07:02:32;17.77;;;9.93;;
58878;SDS011;44660;42.664;23.266;2024-02-23T07:05:01;27.73;;;13.55;;
58878;SDS011;44660;42.664;23.266;2024-02-23T07:07:31;17.52;;;9.93;;
58878;SDS011;44660;42.664;23.266;2024-02-23T07:09:58;17.75;;;10.40;;
58878;SDS011;44660;42.664;23.266;2024-02-23T07:12:24;21.92;;;9.90;;
58878;SDS011;44660;42.664;23.266;2024-02-23T07:14:52;18.20;;;9.80;;
58878;SDS011;44660;42.664;23.266;2024-02-23T07:17:17;18.95;;;9.52;;
58878;SDS011;44660;42.664;23.266;2024-02-23T07:19:43;16.60;;;10.23;;
58878;SDS011;44660;42.664;23.266;2024-02-23T07:22:09;15.80;;;10.60;;
58878;SDS011;44660;42.664;23.266;2024-02-23T07:24:38;18.20;;;10.23;;
58878;SDS011;44660;42.664;23.266;2024-02-23T07:27:07;20.20;;;11.65;;
58878;SDS011;44660;42.664;23.266;2024-02-23T07:29:32;16.90;;;9.90;;
58878;SDS011;44660;42.664;23.266;2024-02-23T07:31:58;15.10;;;9.18;;
58878;SDS011;44660;42.664;23.266;2024-02-23T07:34:23;22.25;;;10.35;;
58878;SDS011;44660;42.664;23.266;2024-02-23T07:36:52;20.77;;;10.23;;
58878;SDS011;44660;42.664;23.266;2024-02-23T07:39:18;16.63;;;10.18;;
58878;SDS011;44660;42.664;23.266;2024-02-23T07:41:44;17.27;;;10.70;;
58878;SDS011;44660;42.664;23.266;2024-02-23T07:44:09;18.85;;;11.70;;
58878;SDS011;44660;42.664;23.266;2024-02-23T07:46:35;18.15;;;10.95;;
58878;SDS011;44660;42.664;23.266;2024-02-23T07:49:00;21.55;;;10.57;;
58878;SDS011;44660;42.664;23.266;2024-02-23T07:51:26;19.45;;;10.43;;
58878;SDS011;44660;42.664;23.266;2024-02-23T07:53:51;16.25;;;10.20;;
58878;SDS011;44660;42.664;23.266;2024-02-23T07:56:16;19.13;;;10.80;;
58878;SDS011;44660;42.664;23.266;2024-02-23T07:58:42;20.20;;;10.98;;
58878;SDS011;44660;42.664;23.266;2024-02-23T08:01:08;16.98;;;10.90;;
58878;SDS011;44660;42.664;23.266;2024-02-23T08:03:33;19.25;;;10.75;;
58878;SDS011;44660;42.664;23.266;2024-02-23T08:05:59;19.60;;;11.30;;
58878;SDS011;44660;42.664;23.266;2024-02-23T08:08:25;19.83;;;11.73;;
58878;SDS011;44660;42.664;23.266;2024-02-23T08:10:52;21.10;;;10.45;;
58878;SDS011;44660;42.664;23.266;2024-02-23T08:13:18;20.13;;;10.25;;
58878;SDS011;44660;42.664;23.266;2024-02-23T08:15:43;17.52;;;10.77;;
58878;SDS011;44660;42.664;23.266;2024-02-23T08:18:09;18.48;;;9.95;;
58878;SDS011;44660;42.664;23.266;2024-02-23T08:20:35;17.08;;;10.55;;
58878;SDS011;44660;42.664;23.266;2024-02-23T08:23:01;17.75;;;10.65;;
58878;SDS011;44660;42.664;23.266;2024-02-23T08:25:27;17.33;;;10.55;;
58878;SDS011;44660;42.664;23.266;2024-02-23T08:27:54;18.17;;;9.98;;
58878;SDS011;44660;42.664;23.266;2024-02-23T08:30:24;19.02;;;11.50;;
58878;SDS011;44660;42.664;23.266;2024-02-23T08:32:49;19.35;;;12.57;;
58878;SDS011;44660;42.664;23.266;2024-02-23T08:35:15;19.58;;;11.85;;
58878;SDS011;44660;42.664;23.266;2024-02-23T08:37:41;19.58;;;11.52;;
58878;SDS011;44660;42.664;23.266;2024-02-23T08:40:07;19.83;;;11.93;;
58878;SDS011;44660;42.664;23.266;2024-02-23T08:42:33;18.27;;;11.55;;
58878;SDS011;44660;42.664;23.266;2024-02-23T08:44:59;16.98;;;11.18;;
58878;SDS011;44660;42.664;23.266;2024-02-23T08:47:24;18.10;;;10.68;;
58878;SDS011;44660;42.664;23.266;2024-02-23T08:49:53;15.30;;;10.63;;
58878;SDS011;44660;42.664;23.266;2024-02-23T08:52:18;12.95;;;9.85;;
58878;SDS011;44660;42.664;23.266;2024-02-23T08:54:44;15.27;;;9.25;;
58878;SDS011;44660;42.664;23.266;2024-02-23T08:57:09;10.95;;;8.57;;
58878;SDS011;44660;42.664;23.266;2024-02-23T08:59:34;15.13;;;8.90;;
58878;SDS011;44660;42.664;23.266;2024-02-23T09:02:00;14.60;;;8.50;;
58878;SDS011;44660;42.664;23.266;2024-02-23T09:04:25;11.80;;;8.82;;
58878;SDS011;44660;42.664;23.266;2024-02-23T09:06:51;11.93;;;8.65;;
58878;SDS011;44660;42.664;23.266;2024-02-23T09:09:18;10.75;;;7.35;;
58878;SDS011;44660;42.664;23.266;2024-02-23T09:11:43;13.85;;;7.30;;
58878;SDS011;44660;42.664;23.266;2024-02-23T09:14:09;9.00;;;7.47;;
58878;SDS011;44660;42.664;23.266;2024-02-23T09:16:34;8.38;;;6.82;;
58878;SDS011;44660;42.664;23.266;2024-02-23T09:18:59;7.82;;;5.47;;
58878;SDS011;44660;42.664;23.266;2024-02-23T09:21:25;7.20;;;5.38;;
58878;SDS011;44660;42.664;23.266;2024-02-23T09:23:50;8.38;;;5.07;;
58878;SDS011;44660;42.664;23.266;2024-02-23T09:26:15;8.70;;;4.80;;
58878;SDS011;44660;42.664;23.266;2024-02-23T09:28:41;14.60;;;4.68;;
58878;SDS011;44660;42.664;23.266;2024-02-23T09:31:07;6.43;;;5.00;;
58878;SDS011;44660;42.664;23.266;2024-02-23T09:33:32;7.53;;;5.20;;
58878;SDS011;44660;42.664;23.266;2024-02-23T09:35:58;5.45;;;4.50;;
58878;SDS011;44660;42.664;23.266;2024-02-23T09:38:24;6.85;;;4.38;;
58878;SDS011;44660;42.664;23.266;2024-02-23T09:40:50;6.38;;;4.80;;
58878;SDS011;44660;42.664;23.266;2024-02-23T09:43:16;8.48;;;5.82;;
58878;SDS011;44660;42.664;23.266;2024-02-23T09:45:42;7.43;;;4.93;;
58878;SDS011;44660;42.664;23.266;2024-02-23T09:48:09;8.35;;;4.68;;
58878;SDS011;44660;42.664;23.266;2024-02-23T09:50:35;6.47;;;5.13;;
58878;SDS011;44660;42.664;23.266;2024-02-23T09:53:03;5.28;;;3.88;;
58878;SDS011;44660;42.664;23.266;2024-02-23T09:55:29;6.38;;;3.92;;
58878;SDS011;44660;42.664;23.266;2024-02-23T09:57:55;5.25;;;4.05;;
58878;SDS011;44660;42.664;23.266;2024-02-23T10:00:23;5.73;;;3.50;;
58878;SDS011;44660;42.664;23.266;2024-02-23T10:02:48;6.25;;;3.90;;
58878;SDS011;44660;42.664;23.266;2024-02-23T10:05:15;6.28;;;4.03;;
58878;SDS011;44660;42.664;23.266;2024-02-23T10:07:42;15.40;;;11.95;;
58878;SDS011;44660;42.664;23.266;2024-02-23T10:10:09;5.38;;;3.63;;
58878;SDS011;44660;42.664;23.266;2024-02-23T10:12:36;4.28;;;3.40;;
58878;SDS011;44660;42.664;23.266;2024-02-23T10:15:02;3.47;;;2.33;;
58878;SDS011;44660;42.664;23.266;2024-02-23T10:17:29;5.25;;;2.55;;
58878;SDS011;44660;42.664;23.266;2024-02-23T10:19:55;3.95;;;2.40;;
58878;SDS011;44660;42.664;23.266;2024-02-23T10:22:22;5.20;;;3.17;;
58878;SDS011;44660;42.664;23.266;2024-02-23T10:24:50;3.33;;;2.67;;
58878;SDS011;44660;42.664;23.266;2024-02-23T10:27:16;4.07;;;2.58;;
58878;SDS011;44660;42.664;23.266;2024-02-23T10:29:42;2.85;;;2.17;;
58878;SDS011;44660;42.664;23.266;2024-02-23T10:32:07;5.15;;;2.15;;
58878;SDS011;44660;42.664;23.266;2024-02-23T10:34:39;2.78;;;2.40;;
58878;SDS011;44660;42.664;23.266;2024-02-23T10:37:07;3.08;;;2.58;;
58878;SDS011;44660;42.664;23.266;2024-02-23T10:39:33;5.43;;;2.47;;
58878;SDS011;44660;42.664;23.266;2024-02-23T10:42:02;4.75;;;3.17;;
58878;SDS011;44660;42.664;23.266;2024-02-23T10:44:29;2.35;;;2.15;;
58878;SDS011;44660;42.664;23.266;2024-02-23T10:46:55;3.95;;;2.10;;
58878;SDS011;44660;42.664;23.266;2024-02-23T10:49:23;4.40;;;2.43;;
58878;SDS011;44660;42.664;23.266;2024-02-23T10:51:52;3.10;;;2.05;;
58878;SDS011;44660;42.664;23.266;2024-02-23T10:54:19;2.50;;;2.25;;
58878;SDS011;44660;42.664;23.266;2024-02-23T10:56:51;4.97;;;3.08;;
58878;SDS011;44660;42.664;23.266;2024-02-23T10:59:18;4.60;;;2.88;;
58878;SDS011;44660;42.664;23.266;2024-02-23T11:01:51;2.47;;;1.95;;
58878;SDS011;44660;42.664;23.266;2024-02-23T11:04:19;3.97;;;2.78;;
58878;SDS011;44660;42.664;23.266;2024-02-23T11:06:50;4.30;;;2.30;;
58878;SDS011;44660;42.664;23.266;2024-02-23T11:09:22;6.03;;;3.47;;
58878;SDS011;44660;42.664;23.266;2024-02-23T11:11:56;4.22;;;2.40;;
58878;SDS011;44660;42.664;23.266;2024-02-23T11:14:31;3.88;;;2.10;;
58878;SDS011;44660;42.664;23.266;2024-02-23T11:17:20;3.35;;;2.13;;
58878;SDS011;44660;42.664;23.266;2024-02-23T11:19:48;9.05;;;4.10;;
58878;SDS011;44660;42.664;23.266;2024-02-23T11:22:15;3.65;;;1.88;;
58878;SDS011;44660;42.664;23.266;2024-02-23T11:24:52;2.63;;;1.60;;
58878;SDS011;44660;42.664;23.266;2024-02-23T11:27:19;3.35;;;1.80;;
58878;SDS011;44660;42.664;23.266;2024-02-23T11:29:45;5.30;;;2.30;;
58878;SDS011;44660;42.664;23.266;2024-02-23T11:32:15;2.55;;;2.05;;
58878;SDS011;44660;42.664;23.266;2024-02-23T11:34:53;3.13;;;1.77;;
58878;SDS011;44660;42.664;23.266;2024-02-23T11:37:19;3.20;;;1.77;;
58878;SDS011;44660;42.664;23.266;2024-02-23T11:39:45;3.42;;;1.92;;
58878;SDS011;44660;42.664;23.266;2024-02-23T11:42:11;2.40;;;1.63;;
58878;SDS011;44660;42.664;23.266;2024-02-23T11:44:37;2.42;;;1.70;;
58878;SDS011;44660;42.664;23.266;2024-02-23T11:47:03;1.73;;;1.55;;
58878;SDS011;44660;42.664;23.266;2024-02-23T11:49:28;3.00;;;1.90;;
58878;SDS011;44660;42.664;23.266;2024-02-23T11:51:54;3.88;;;2.53;;
58878;SDS011;44660;42.664;23.266;2024-02-23T11:54:20;3.58;;;1.60;;
58878;SDS011;44660;42.664;23.266;2024-02-23T11:56:47;2.72;;;1.48;;
58878;SDS011;44660;42.664;23.266;2024-02-23T11:59:14;5.00;;;2.10;;
58878;SDS011;44660;42.664;23.266;2024-02-23T12:01:40;4.55;;;1.83;;
58878;SDS011;44660;42.664;23.266;2024-02-23T12:04:05;4.28;;;2.88;;
58878;SDS011;44660;42.664;23.266;2024-02-23T12:06:31;3.13;;;1.80;;
58878;SDS011;44660;42.664;23.266;2024-02-23T12:08:57;4.45;;;2.55;;
58878;SDS011;44660;42.664;23.266;2024-02-23T12:11:23;4.15;;;1.60;;
58878;SDS011;44660;42.664;23.266;2024-02-23T12:13:49;5.13;;;1.90;;
58878;SDS011;44660;42.664;23.266;2024-02-23T12:16:16;3.35;;;1.92;;
58878;SDS011;44660;42.664;23.266;2024-02-23T12:18:41;5.55;;;2.60;;
58878;SDS011;44660;42.664;23.266;2024-02-23T12:21:08;2.47;;;1.73;;
58878;SDS011;44660;42.664;23.266;2024-02-23T12:23:43;3.78;;;2.08;;
58878;SDS011;44660;42.664;23.266;2024-02-23T12:26:11;1.88;;;1.50;;
58878;SDS011;44660;42.664;23.266;2024-02-23T12:28:38;1.80;;;1.50;;
58878;SDS011;44660;42.664;23.266;2024-02-23T12:31:04;3.00;;;1.50;;
58878;SDS011;44660;42.664;23.266;2024-02-23T12:33:34;6.88;;;2.78;;
58878;SDS011;44660;42.664;23.266;2024-02-23T12:36:01;6.90;;;3.20;;
58878;SDS011;44660;42.664;23.266;2024-02-23T12:38:28;2.90;;;2.20;;
58878;SDS011;44660;42.664;23.266;2024-02-23T12:40:54;3.88;;;1.65;;
58878;SDS011;44660;42.664;23.266;2024-02-23T12:43:19;5.53;;;2.28;;
58878;SDS011;44660;42.664;23.266;2024-02-23T12:45:50;2.33;;;1.50;;
58878;SDS011;44660;42.664;23.266;2024-02-23T12:48:16;2.72;;;1.88;;
58878;SDS011;44660;42.664;23.266;2024-02-23T12:50:42;5.13;;;2.80;;
58878;SDS011;44660;42.664;23.266;2024-02-23T12:53:30;4.43;;;2.40;;
58878;SDS011;44660;42.664;23.266;2024-02-23T12:56:06;2.08;;;1.73;;
58878;SDS011;44660;42.664;23.266;2024-02-23T12:58:33;3.45;;;1.70;;
58878;SDS011;44660;42.664;23.266;2024-02-23T13:01:00;2.85;;;1.85;;
58878;SDS011;44660;42.664;23.266;2024-02-23T13:03:26;3.05;;;1.65;;
58878;SDS011;44660;42.664;23.266;2024-02-23T13:05:54;1.95;;;1.60;;
58878;SDS011;44660;42.664;23.266;2024-02-23T13:08:21;5.40;;;1.80;;
58878;SDS011;44660;42.664;23.266;2024-02-23T13:10:47;4.13;;;1.70;;
58878;SDS011;44660;42.664;23.266;2024-02-23T13:13:13;3.85;;;1.90;;
58878;SDS011;44660;42.664;23.266;2024-02-23T13:15:40;3.70;;;1.73;;
58878;SDS011;44660;42.664;23.266;2024-02-23T13:18:12;2.60;;;1.70;;
58878;SDS011;44660;42.664;23.266;2024-02-23T13:20:38;2.65;;;1.75;;
58878;SDS011;44660;42.664;23.266;2024-02-23T13:23:04;2.70;;;1.92;;
58878;SDS011;44660;42.664;23.266;2024-02-23T13:25:36;2.50;;;1.50;;
58878;SDS011;44660;42.664;23.266;2024-02-23T13:28:05;2.22;;;1.58;;
58878;SDS011;44660;42.664;23.266;2024-02-23T13:30:32;2.90;;;1.48;;
58878;SDS011;44660;42.664;23.266;2024-02-23T13:32:58;4.00;;;1.88;;
58878;SDS011;44660;42.664;23.266;2024-02-23T13:35:23;5.22;;;2.60;;
58878;SDS011;44660;42.664;23.266;2024-02-23T13:37:50;3.08;;;2.00;;
58878;SDS011;44660;42.664;23.266;2024-02-23T13:40:15;3.67;;;2.08;;
58878;SDS011;44660;42.664;23.266;2024-02-23T13:42:41;4.95;;;2.17;;
58878;SDS011;44660;42.664;23.266;2024-02-23T13:45:07;3.83;;;2.03;;
58878;SDS011;44660;42.664;23.266;2024-02-23T13:47:34;4.82;;;2.13;;
58878;SDS011;44660;42.664;23.266;2024-02-23T13:50:00;2.13;;;1.75;;
58878;SDS011;44660;42.664;23.266;2024-02-23T13:52:29;3.80;;;1.92;;
58878;SDS011;44660;42.664;23.266;2024-02-23T13:54:55;3.80;;;2.30;;
58878;SDS011;44660;42.664;23.266;2024-02-23T13:57:20;3.22;;;1.90;;
58878;SDS011;44660;42.664;23.266;2024-02-23T13:59:46;5.40;;;1.70;;
58878;SDS011;44660;42.664;23.266;2024-02-23T14:02:12;4.20;;;2.83;;
58878;SDS011;44660;42.664;23.266;2024-02-23T14:04:38;2.50;;;1.80;;
58878;SDS011;44660;42.664;23.266;2024-02-23T14:07:03;4.30;;;2.05;;
58878;SDS011;44660;42.664;23.266;2024-02-23T14:09:29;2.88;;;1.90;;
58878;SDS011;44660;42.664;23.266;2024-02-23T14:11:55;2.72;;;1.90;;
58878;SDS011;44660;42.664;23.266;2024-02-23T14:14:23;1.83;;;1.50;;
58878;SDS011;44660;42.664;23.266;2024-02-23T14:16:49;3.00;;;1.60;;
58878;SDS011;44660;42.664;23.266;2024-02-23T14:19:18;7.10;;;2.60;;